sensor_id;sensor_type;location;lat;lon;timestamp;P1;durP1;ratioP1;P2;durP2;ratioP2
12135;SDS011;6131;56.420;15.548;2024-02-26T00:01:39;33.13;;;13.47;;
12135;SDS011;6131;56.420;15.548;2024-02-26T00:04:05;25.70;;;12.43;;
12135;SDS011;6131;56.420;15.548;2024-02-26T00:06:31;29.10;;;13.17;;
12135;SDS011;6131;56.420;15.548;2024-02-26T00:08:57;24.30;;;13.00;;
12135;SDS011;6131;56.420;15.548;2024-02-26T00:11:23;30.40;;;13.03;;
12135;SDS011;6131;56.420;15.548;2024-02-26T00:13:49;27.63;;;11.57;;
12135;SDS011;6131;56.420;15.548;2024-02-26T00:16:15;39.50;;;13.27;;
12135;SDS011;6131;56.420;15.548;2024-02-26T00:18:41;38.50;;;13.40;;
12135;SDS011;6131;56.420;15.548;2024-02-26T00:21:07;43.07;;;13.07;;
12135;SDS011;6131;56.420;15.548;2024-02-26T00:23:33;27.97;;;12.03;;
12135;SDS011;6131;56.420;15.548;2024-02-26T00:25:59;31.13;;;13.13;;
12135;SDS011;6131;56.420;15.548;2024-02-26T00:28:25;35.43;;;13.03;;
12135;SDS011;6131;56.420;15.548;2024-02-26T00:30:52;38.07;;;14.43;;
12135;SDS011;6131;56.420;15.548;2024-02-26T00:33:20;30.87;;;14.07;;
12135;SDS011;6131;56.420;15.548;2024-02-26T00:35:46;31.63;;;14.30;;
12135;SDS011;6131;56.420;15.548;2024-02-26T00:38:12;54.70;;;14.83;;
12135;SDS011;6131;56.420;15.548;2024-02-26T00:40:38;28.40;;;13.47;;
12135;SDS011;6131;56.420;15.548;2024-02-26T00:43:05;32.77;;;13.80;;
12135;SDS011;6131;56.420;15.548;2024-02-26T00:45:31;28.07;;;13.43;;
12135;SDS011;6131;56.420;15.548;2024-02-26T00:47:58;31.93;;;13.20;;
12135;SDS011;6131;56.420;15.548;2024-02-26T00:50:26;48.67;;;14.50;;
12135;SDS011;6131;56.420;15.548;2024-02-26T00:52:52;28.23;;;13.43;;
12135;SDS011;6131;56.420;15.548;2024-02-26T00:55:18;30.27;;;13.67;;
12135;SDS011;6131;56.420;15.548;2024-02-26T00:57:44;34.93;;;13.07;;
12135;SDS011;6131;56.420;15.548;2024-02-26T01:00:11;32.33;;;12.97;;
12135;SDS011;6131;56.420;15.548;2024-02-26T01:02:37;33.03;;;13.00;;
12135;SDS011;6131;56.420;15.548;2024-02-26T01:05:04;29.80;;;13.73;;
12135;SDS011;6131;56.420;15.548;2024-02-26T01:07:31;49.37;;;15.37;;
12135;SDS011;6131;56.420;15.548;2024-02-26T01:10:00;28.23;;;13.43;;
12135;SDS011;6131;56.420;15.548;2024-02-26T01:12:27;32.60;;;14.93;;
12135;SDS011;6131;56.420;15.548;2024-02-26T01:14:53;31.90;;;14.40;;
12135;SDS011;6131;56.420;15.548;2024-02-26T01:17:19;31.83;;;14.00;;
12135;SDS011;6131;56.420;15.548;2024-02-26T01:19:45;23.87;;;13.33;;
12135;SDS011;6131;56.420;15.548;2024-02-26T01:22:11;33.00;;;14.27;;
12135;SDS011;6131;56.420;15.548;2024-02-26T01:24:37;28.10;;;14.17;;
12135;SDS011;6131;56.420;15.548;2024-02-26T01:27:03;29.90;;;14.53;;
12135;SDS011;6131;56.420;15.548;2024-02-26T01:29:29;22.70;;;12.53;;
12135;SDS011;6131;56.420;15.548;2024-02-26T01:31:55;29.87;;;12.83;;
12135;SDS011;6131;56.420;15.548;2024-02-26T01:34:21;28.97;;;12.73;;
12135;SDS011;6131;56.420;15.548;2024-02-26T01:36:47;26.53;;;11.83;;
12135;SDS011;6131;56.420;15.548;2024-02-26T01:39:14;26.00;;;12.27;;
12135;SDS011;6131;56.420;15.548;2024-02-26T01:41:40;23.30;;;12.13;;
12135;SDS011;6131;56.420;15.548;2024-02-26T01:44:06;31.20;;;13.30;;
12135;SDS011;6131;56.420;15.548;2024-02-26T01:46:32;29.93;;;11.70;;
12135;SDS011;6131;56.420;15.548;2024-02-26T01:48:59;32.73;;;14.00;;
12135;SDS011;6131;56.420;15.548;2024-02-26T01:51:27;46.43;;;13.00;;
12135;SDS011;6131;56.420;15.548;2024-02-26T01:53:53;50.70;;;15.33;;
12135;SDS011;6131;56.420;15.548;2024-02-26T01:56:19;27.17;;;12.67;;
12135;SDS011;6131;56.420;15.548;2024-02-26T01:58:46;27.07;;;12.87;;
12135;SDS011;6131;56.420;15.548;2024-02-26T02:01:12;30.53;;;13.97;;
12135;SDS011;6131;56.420;15.548;2024-02-26T02:03:38;32.37;;;14.13;;
12135;SDS011;6131;56.420;15.548;2024-02-26T02:06:06;27.53;;;12.80;;
12135;SDS011;6131;56.420;15.548;2024-02-26T02:08:33;83.33;;;16.10;;
12135;SDS011;6131;56.420;15.548;2024-02-26T02:11:00;42.17;;;14.53;;
12135;SDS011;6131;56.420;15.548;2024-02-26T02:13:26;67.60;;;14.77;;
12135;SDS011;6131;56.420;15.548;2024-02-26T02:15:52;33.67;;;15.13;;
12135;SDS011;6131;56.420;15.548;2024-02-26T02:18:18;44.77;;;16.97;;
12135;SDS011;6131;56.420;15.548;2024-02-26T02:20:44;28.03;;;13.50;;
12135;SDS011;6131;56.420;15.548;2024-02-26T02:23:10;52.30;;;14.57;;
12135;SDS011;6131;56.420;15.548;2024-02-26T02:25:36;28.43;;;13.90;;
12135;SDS011;6131;56.420;15.548;2024-02-26T02:28:02;24.37;;;13.30;;
12135;SDS011;6131;56.420;15.548;2024-02-26T02:30:29;30.10;;;14.40;;
12135;SDS011;6131;56.420;15.548;2024-02-26T02:32:55;27.60;;;13.53;;
12135;SDS011;6131;56.420;15.548;2024-02-26T02:35:23;33.63;;;14.17;;
12135;SDS011;6131;56.420;15.548;2024-02-26T02:37:51;34.80;;;14.73;;
12135;SDS011;6131;56.420;15.548;2024-02-26T02:40:17;29.33;;;13.00;;
12135;SDS011;6131;56.420;15.548;2024-02-26T02:42:43;28.83;;;14.13;;
12135;SDS011;6131;56.420;15.548;2024-02-26T02:45:09;29.03;;;14.13;;
12135;SDS011;6131;56.420;15.548;2024-02-26T02:47:36;82.80;;;15.40;;
12135;SDS011;6131;56.420;15.548;2024-02-26T02:50:02;71.20;;;16.13;;
12135;SDS011;6131;56.420;15.548;2024-02-26T02:52:29;123.43;;;16.93;;
12135;SDS011;6131;56.420;15.548;2024-02-26T02:54:54;92.13;;;15.43;;
12135;SDS011;6131;56.420;15.548;2024-02-26T02:57:20;62.33;;;13.07;;
12135;SDS011;6131;56.420;15.548;2024-02-26T02:59:46;82.00;;;14.10;;
12135;SDS011;6131;56.420;15.548;2024-02-26T03:02:12;106.23;;;14.00;;
12135;SDS011;6131;56.420;15.548;2024-02-26T03:04:38;85.10;;;14.30;;
12135;SDS011;6131;56.420;15.548;2024-02-26T03:07:04;106.80;;;16.10;;
12135;SDS011;6131;56.420;15.548;2024-02-26T03:09:31;71.93;;;13.53;;
12135;SDS011;6131;56.420;15.548;2024-02-26T03:11:57;75.03;;;13.27;;
12135;SDS011;6131;56.420;15.548;2024-02-26T03:14:23;79.57;;;12.70;;
12135;SDS011;6131;56.420;15.548;2024-02-26T03:16:52;93.47;;;12.67;;
12135;SDS011;6131;56.420;15.548;2024-02-26T03:19:18;71.87;;;12.57;;
12135;SDS011;6131;56.420;15.548;2024-02-26T03:21:44;56.80;;;12.53;;
12135;SDS011;6131;56.420;15.548;2024-02-26T03:24:10;44.03;;;10.63;;
12135;SDS011;6131;56.420;15.548;2024-02-26T03:26:37;50.40;;;10.90;;
12135;SDS011;6131;56.420;15.548;2024-02-26T03:29:03;65.00;;;11.43;;
12135;SDS011;6131;56.420;15.548;2024-02-26T03:31:29;45.20;;;9.40;;
12135;SDS011;6131;56.420;15.548;2024-02-26T03:33:55;19.63;;;9.40;;
12135;SDS011;6131;56.420;15.548;2024-02-26T03:36:21;26.43;;;9.03;;
12135;SDS011;6131;56.420;15.548;2024-02-26T03:38:47;32.33;;;9.43;;
12135;SDS011;6131;56.420;15.548;2024-02-26T03:41:13;35.20;;;9.47;;
12135;SDS011;6131;56.420;15.548;2024-02-26T03:43:39;32.93;;;9.33;;
12135;SDS011;6131;56.420;15.548;2024-02-26T03:46:09;18.70;;;7.90;;
12135;SDS011;6131;56.420;15.548;2024-02-26T03:48:39;19.23;;;8.37;;
12135;SDS011;6131;56.420;15.548;2024-02-26T03:51:05;24.53;;;8.90;;
12135;SDS011;6131;56.420;15.548;2024-02-26T03:53:31;21.67;;;8.77;;
12135;SDS011;6131;56.420;15.548;2024-02-26T03:55:57;20.23;;;8.57;;
12135;SDS011;6131;56.420;15.548;2024-02-26T03:58:23;16.27;;;8.10;;
12135;SDS011;6131;56.420;15.548;2024-02-26T04:00:50;22.20;;;9.30;;
12135;SDS011;6131;56.420;15.548;2024-02-26T04:03:16;14.00;;;8.20;;
12135;SDS011;6131;56.420;15.548;2024-02-26T04:05:42;13.10;;;7.40;;
12135;SDS011;6131;56.420;15.548;2024-02-26T04:08:08;13.30;;;7.13;;
12135;SDS011;6131;56.420;15.548;2024-02-26T04:10:35;15.27;;;8.93;;
12135;SDS011;6131;56.420;15.548;2024-02-26T04:13:03;15.43;;;8.10;;
12135;SDS011;6131;56.420;15.548;2024-02-26T04:15:30;15.77;;;7.80;;
12135;SDS011;6131;56.420;15.548;2024-02-26T04:17:56;13.90;;;7.57;;
12135;SDS011;6131;56.420;15.548;2024-02-26T04:20:22;19.53;;;8.20;;
12135;SDS011;6131;56.420;15.548;2024-02-26T04:22:48;24.40;;;8.83;;
12135;SDS011;6131;56.420;15.548;2024-02-26T04:25:14;18.40;;;8.33;;
12135;SDS011;6131;56.420;15.548;2024-02-26T04:27:40;23.63;;;9.30;;
12135;SDS011;6131;56.420;15.548;2024-02-26T04:30:06;20.97;;;8.60;;
12135;SDS011;6131;56.420;15.548;2024-02-26T04:32:33;21.50;;;8.80;;
12135;SDS011;6131;56.420;15.548;2024-02-26T04:34:59;17.80;;;9.50;;
12135;SDS011;6131;56.420;15.548;2024-02-26T04:37:25;17.50;;;8.90;;
12135;SDS011;6131;56.420;15.548;2024-02-26T04:39:57;21.23;;;9.67;;
12135;SDS011;6131;56.420;15.548;2024-02-26T04:42:23;26.20;;;9.00;;
12135;SDS011;6131;56.420;15.548;2024-02-26T04:44:49;16.73;;;8.77;;
12135;SDS011;6131;56.420;15.548;2024-02-26T04:47:15;18.83;;;7.90;;
12135;SDS011;6131;56.420;15.548;2024-02-26T04:49:41;17.17;;;8.17;;
12135;SDS011;6131;56.420;15.548;2024-02-26T04:52:07;14.67;;;8.70;;
12135;SDS011;6131;56.420;15.548;2024-02-26T04:54:33;17.83;;;8.43;;
12135;SDS011;6131;56.420;15.548;2024-02-26T04:56:59;20.23;;;8.87;;
12135;SDS011;6131;56.420;15.548;2024-02-26T04:59:25;23.53;;;8.57;;
12135;SDS011;6131;56.420;15.548;2024-02-26T05:01:51;21.47;;;8.53;;
12135;SDS011;6131;56.420;15.548;2024-02-26T05:04:17;26.07;;;8.37;;
12135;SDS011;6131;56.420;15.548;2024-02-26T05:06:44;24.77;;;9.57;;
12135;SDS011;6131;56.420;15.548;2024-02-26T05:09:10;19.10;;;7.60;;
12135;SDS011;6131;56.420;15.548;2024-02-26T05:11:36;17.90;;;8.50;;
12135;SDS011;6131;56.420;15.548;2024-02-26T05:14:02;21.57;;;8.90;;
12135;SDS011;6131;56.420;15.548;2024-02-26T05:16:28;23.03;;;9.10;;
12135;SDS011;6131;56.420;15.548;2024-02-26T05:18:56;32.00;;;9.10;;
12135;SDS011;6131;56.420;15.548;2024-02-26T05:21:22;17.17;;;8.63;;
12135;SDS011;6131;56.420;15.548;2024-02-26T05:23:48;18.57;;;9.13;;
12135;SDS011;6131;56.420;15.548;2024-02-26T05:26:20;15.73;;;8.23;;
12135;SDS011;6131;56.420;15.548;2024-02-26T05:28:46;15.37;;;8.23;;
12135;SDS011;6131;56.420;15.548;2024-02-26T05:31:13;13.90;;;8.17;;
12135;SDS011;6131;56.420;15.548;2024-02-26T05:33:39;16.80;;;8.77;;
12135;SDS011;6131;56.420;15.548;2024-02-26T05:36:05;15.20;;;8.53;;
12135;SDS011;6131;56.420;15.548;2024-02-26T05:38:31;16.80;;;8.50;;
12135;SDS011;6131;56.420;15.548;2024-02-26T05:40:57;13.57;;;8.23;;
12135;SDS011;6131;56.420;15.548;2024-02-26T05:43:24;15.23;;;8.40;;
12135;SDS011;6131;56.420;15.548;2024-02-26T05:45:50;11.87;;;7.33;;
12135;SDS011;6131;56.420;15.548;2024-02-26T05:48:16;12.43;;;7.67;;
12135;SDS011;6131;56.420;15.548;2024-02-26T05:50:44;14.50;;;7.57;;
12135;SDS011;6131;56.420;15.548;2024-02-26T05:53:10;15.10;;;7.90;;
12135;SDS011;6131;56.420;15.548;2024-02-26T05:55:36;12.10;;;7.87;;
12135;SDS011;6131;56.420;15.548;2024-02-26T05:58:02;13.10;;;7.30;;
12135;SDS011;6131;56.420;15.548;2024-02-26T06:00:28;10.90;;;7.30;;
12135;SDS011;6131;56.420;15.548;2024-02-26T06:02:54;10.57;;;7.50;;
12135;SDS011;6131;56.420;15.548;2024-02-26T06:05:20;10.93;;;7.00;;
12135;SDS011;6131;56.420;15.548;2024-02-26T06:07:46;11.63;;;6.67;;
12135;SDS011;6131;56.420;15.548;2024-02-26T06:10:12;12.33;;;7.43;;
12135;SDS011;6131;56.420;15.548;2024-02-26T06:12:41;13.63;;;7.57;;
12135;SDS011;6131;56.420;15.548;2024-02-26T06:15:07;11.93;;;7.40;;
12135;SDS011;6131;56.420;15.548;2024-02-26T06:17:34;12.43;;;7.70;;
12135;SDS011;6131;56.420;15.548;2024-02-26T06:20:00;11.07;;;7.53;;
12135;SDS011;6131;56.420;15.548;2024-02-26T06:22:26;12.17;;;7.67;;
12135;SDS011;6131;56.420;15.548;2024-02-26T06:24:52;11.13;;;7.53;;
12135;SDS011;6131;56.420;15.548;2024-02-26T06:27:19;12.60;;;7.47;;
12135;SDS011;6131;56.420;15.548;2024-02-26T06:29:46;13.30;;;7.33;;
12135;SDS011;6131;56.420;15.548;2024-02-26T06:32:13;11.17;;;7.47;;
12135;SDS011;6131;56.420;15.548;2024-02-26T06:34:39;13.97;;;8.67;;
12135;SDS011;6131;56.420;15.548;2024-02-26T06:37:06;10.80;;;7.07;;
12135;SDS011;6131;56.420;15.548;2024-02-26T06:39:32;12.60;;;7.90;;
12135;SDS011;6131;56.420;15.548;2024-02-26T06:41:58;10.73;;;7.17;;
12135;SDS011;6131;56.420;15.548;2024-02-26T06:44:27;13.13;;;8.17;;
12135;SDS011;6131;56.420;15.548;2024-02-26T06:46:59;12.87;;;8.00;;
12135;SDS011;6131;56.420;15.548;2024-02-26T06:49:26;10.47;;;7.10;;
12135;SDS011;6131;56.420;15.548;2024-02-26T06:51:52;11.53;;;7.17;;
12135;SDS011;6131;56.420;15.548;2024-02-26T06:54:18;12.00;;;7.73;;
12135;SDS011;6131;56.420;15.548;2024-02-26T06:56:44;12.23;;;7.60;;
12135;SDS011;6131;56.420;15.548;2024-02-26T06:59:10;10.70;;;7.67;;
12135;SDS011;6131;56.420;15.548;2024-02-26T07:01:36;10.17;;;7.07;;
12135;SDS011;6131;56.420;15.548;2024-02-26T07:04:03;12.10;;;7.33;;
12135;SDS011;6131;56.420;15.548;2024-02-26T07:06:29;10.87;;;7.47;;
12135;SDS011;6131;56.420;15.548;2024-02-26T07:08:55;12.80;;;7.77;;
12135;SDS011;6131;56.420;15.548;2024-02-26T07:11:21;11.07;;;7.67;;
12135;SDS011;6131;56.420;15.548;2024-02-26T07:13:47;10.40;;;7.30;;
12135;SDS011;6131;56.420;15.548;2024-02-26T07:16:14;10.97;;;7.07;;
12135;SDS011;6131;56.420;15.548;2024-02-26T07:18:40;11.37;;;6.50;;
12135;SDS011;6131;56.420;15.548;2024-02-26T07:21:06;9.77;;;6.80;;
12135;SDS011;6131;56.420;15.548;2024-02-26T07:23:32;10.60;;;7.37;;
12135;SDS011;6131;56.420;15.548;2024-02-26T07:25:58;12.97;;;8.07;;
12135;SDS011;6131;56.420;15.548;2024-02-26T07:28:25;11.53;;;7.60;;
12135;SDS011;6131;56.420;15.548;2024-02-26T07:30:50;9.83;;;6.60;;
12135;SDS011;6131;56.420;15.548;2024-02-26T07:33:16;10.77;;;7.50;;
12135;SDS011;6131;56.420;15.548;2024-02-26T07:35:42;10.83;;;7.20;;
12135;SDS011;6131;56.420;15.548;2024-02-26T07:38:08;8.87;;;6.10;;
12135;SDS011;6131;56.420;15.548;2024-02-26T07:40:34;9.30;;;6.87;;
12135;SDS011;6131;56.420;15.548;2024-02-26T07:43:01;11.27;;;7.67;;
12135;SDS011;6131;56.420;15.548;2024-02-26T07:45:27;10.63;;;7.83;;
12135;SDS011;6131;56.420;15.548;2024-02-26T07:47:53;11.93;;;8.47;;
12135;SDS011;6131;56.420;15.548;2024-02-26T07:50:19;11.60;;;8.23;;
12135;SDS011;6131;56.420;15.548;2024-02-26T07:52:45;11.77;;;7.27;;
12135;SDS011;6131;56.420;15.548;2024-02-26T07:55:11;12.50;;;8.50;;
12135;SDS011;6131;56.420;15.548;2024-02-26T07:57:37;12.33;;;8.47;;
12135;SDS011;6131;56.420;15.548;2024-02-26T08:00:03;12.73;;;9.43;;
12135;SDS011;6131;56.420;15.548;2024-02-26T08:02:32;11.90;;;9.00;;
12135;SDS011;6131;56.420;15.548;2024-02-26T08:04:59;12.77;;;9.40;;
12135;SDS011;6131;56.420;15.548;2024-02-26T08:07:25;13.33;;;8.73;;
12135;SDS011;6131;56.420;15.548;2024-02-26T08:09:51;15.33;;;10.33;;
12135;SDS011;6131;56.420;15.548;2024-02-26T08:12:17;15.07;;;9.67;;
12135;SDS011;6131;56.420;15.548;2024-02-26T08:14:43;13.77;;;9.33;;
12135;SDS011;6131;56.420;15.548;2024-02-26T08:17:10;14.20;;;9.27;;
12135;SDS011;6131;56.420;15.548;2024-02-26T08:19:36;14.23;;;9.10;;
12135;SDS011;6131;56.420;15.548;2024-02-26T08:22:02;15.13;;;9.50;;
12135;SDS011;6131;56.420;15.548;2024-02-26T08:24:28;15.10;;;10.10;;
12135;SDS011;6131;56.420;15.548;2024-02-26T08:26:54;12.47;;;8.53;;
12135;SDS011;6131;56.420;15.548;2024-02-26T08:29:20;12.13;;;8.77;;
12135;SDS011;6131;56.420;15.548;2024-02-26T08:31:46;14.23;;;9.60;;
12135;SDS011;6131;56.420;15.548;2024-02-26T08:34:13;12.00;;;8.27;;
12135;SDS011;6131;56.420;15.548;2024-02-26T08:36:39;12.13;;;8.77;;
12135;SDS011;6131;56.420;15.548;2024-02-26T08:39:05;12.07;;;8.93;;
12135;SDS011;6131;56.420;15.548;2024-02-26T08:41:32;12.30;;;8.93;;
12135;SDS011;6131;56.420;15.548;2024-02-26T08:43:58;13.03;;;8.93;;
12135;SDS011;6131;56.420;15.548;2024-02-26T08:46:24;12.50;;;8.87;;
12135;SDS011;6131;56.420;15.548;2024-02-26T08:48:50;14.50;;;9.63;;
12135;SDS011;6131;56.420;15.548;2024-02-26T08:51:16;13.57;;;9.07;;
12135;SDS011;6131;56.420;15.548;2024-02-26T08:53:42;13.43;;;9.30;;
12135;SDS011;6131;56.420;15.548;2024-02-26T08:56:08;11.90;;;8.93;;
12135;SDS011;6131;56.420;15.548;2024-02-26T08:58:34;13.73;;;9.90;;
12135;SDS011;6131;56.420;15.548;2024-02-26T09:01:00;14.57;;;9.97;;
12135;SDS011;6131;56.420;15.548;2024-02-26T09:03:27;12.63;;;8.83;;
12135;SDS011;6131;56.420;15.548;2024-02-26T09:05:53;25.60;;;10.10;;
12135;SDS011;6131;56.420;15.548;2024-02-26T09:08:19;34.67;;;11.53;;
12135;SDS011;6131;56.420;15.548;2024-02-26T09:10:44;30.63;;;10.73;;
12135;SDS011;6131;56.420;15.548;2024-02-26T09:13:11;25.23;;;11.90;;
12135;SDS011;6131;56.420;15.548;2024-02-26T09:15:37;28.37;;;10.80;;
12135;SDS011;6131;56.420;15.548;2024-02-26T09:18:03;22.93;;;10.67;;
12135;SDS011;6131;56.420;15.548;2024-02-26T09:20:29;33.90;;;10.60;;
12135;SDS011;6131;56.420;15.548;2024-02-26T09:22:55;14.73;;;9.73;;
12135;SDS011;6131;56.420;15.548;2024-02-26T09:25:21;13.47;;;9.97;;
12135;SDS011;6131;56.420;15.548;2024-02-26T09:27:47;19.30;;;10.63;;
12135;SDS011;6131;56.420;15.548;2024-02-26T09:30:13;12.60;;;9.00;;
12135;SDS011;6131;56.420;15.548;2024-02-26T09:32:39;12.63;;;9.00;;
12135;SDS011;6131;56.420;15.548;2024-02-26T09:35:06;13.40;;;9.27;;
12135;SDS011;6131;56.420;15.548;2024-02-26T09:37:32;13.70;;;9.37;;
12135;SDS011;6131;56.420;15.548;2024-02-26T09:39:59;13.27;;;9.30;;
12135;SDS011;6131;56.420;15.548;2024-02-26T09:42:25;15.67;;;10.83;;
12135;SDS011;6131;56.420;15.548;2024-02-26T09:44:55;14.80;;;9.93;;
12135;SDS011;6131;56.420;15.548;2024-02-26T09:47:21;16.20;;;10.57;;
12135;SDS011;6131;56.420;15.548;2024-02-26T09:49:49;13.50;;;8.97;;
12135;SDS011;6131;56.420;15.548;2024-02-26T09:52:15;12.43;;;8.77;;
12135;SDS011;6131;56.420;15.548;2024-02-26T09:54:42;14.40;;;9.13;;
12135;SDS011;6131;56.420;15.548;2024-02-26T09:57:12;11.20;;;8.30;;
12135;SDS011;6131;56.420;15.548;2024-02-26T09:59:41;12.40;;;8.80;;
12135;SDS011;6131;56.420;15.548;2024-02-26T10:02:16;13.97;;;9.73;;
12135;SDS011;6131;56.420;15.548;2024-02-26T10:04:45;12.73;;;9.90;;
12135;SDS011;6131;56.420;15.548;2024-02-26T10:07:14;12.80;;;9.70;;
12135;SDS011;6131;56.420;15.548;2024-02-26T10:09:41;13.17;;;9.93;;
12135;SDS011;6131;56.420;15.548;2024-02-26T10:12:08;12.37;;;9.87;;
12135;SDS011;6131;56.420;15.548;2024-02-26T10:14:34;11.73;;;9.57;;
12135;SDS011;6131;56.420;15.548;2024-02-26T10:17:01;11.30;;;9.23;;
12135;SDS011;6131;56.420;15.548;2024-02-26T10:19:28;11.57;;;9.57;;
12135;SDS011;6131;56.420;15.548;2024-02-26T10:21:57;12.93;;;9.37;;
12135;SDS011;6131;56.420;15.548;2024-02-26T10:24:32;11.00;;;9.30;;
12135;SDS011;6131;56.420;15.548;2024-02-26T10:26:59;11.33;;;8.70;;
12135;SDS011;6131;56.420;15.548;2024-02-26T10:29:25;9.60;;;8.23;;
12135;SDS011;6131;56.420;15.548;2024-02-26T10:31:51;11.73;;;9.33;;
12135;SDS011;6131;56.420;15.548;2024-02-26T10:34:18;9.57;;;7.63;;
12135;SDS011;6131;56.420;15.548;2024-02-26T10:36:44;12.17;;;7.93;;
12135;SDS011;6131;56.420;15.548;2024-02-26T10:39:13;8.60;;;7.70;;
12135;SDS011;6131;56.420;15.548;2024-02-26T10:41:43;9.33;;;7.27;;
12135;SDS011;6131;56.420;15.548;2024-02-26T10:44:09;9.40;;;8.30;;
12135;SDS011;6131;56.420;15.548;2024-02-26T10:46:44;9.13;;;7.67;;
12135;SDS011;6131;56.420;15.548;2024-02-26T10:49:13;8.93;;;7.70;;
12135;SDS011;6131;56.420;15.548;2024-02-26T10:51:40;9.13;;;7.40;;
12135;SDS011;6131;56.420;15.548;2024-02-26T10:54:09;8.37;;;6.87;;
12135;SDS011;6131;56.420;15.548;2024-02-26T10:56:38;7.67;;;6.53;;
12135;SDS011;6131;56.420;15.548;2024-02-26T10:59:08;8.07;;;6.87;;
12135;SDS011;6131;56.420;15.548;2024-02-26T11:01:35;7.53;;;6.30;;
12135;SDS011;6131;56.420;15.548;2024-02-26T11:04:06;6.90;;;6.17;;
12135;SDS011;6131;56.420;15.548;2024-02-26T11:06:32;8.07;;;6.53;;
12135;SDS011;6131;56.420;15.548;2024-02-26T11:08:59;8.40;;;6.67;;
12135;SDS011;6131;56.420;15.548;2024-02-26T11:11:26;8.13;;;6.43;;
12135;SDS011;6131;56.420;15.548;2024-02-26T11:13:53;7.97;;;7.07;;
12135;SDS011;6131;56.420;15.548;2024-02-26T11:16:22;8.47;;;6.50;;
12135;SDS011;6131;56.420;15.548;2024-02-26T11:18:49;9.53;;;6.87;;
12135;SDS011;6131;56.420;15.548;2024-02-26T11:21:15;8.13;;;6.13;;
12135;SDS011;6131;56.420;15.548;2024-02-26T11:23:44;6.87;;;5.67;;
12135;SDS011;6131;56.420;15.548;2024-02-26T11:26:11;6.33;;;5.23;;
12135;SDS011;6131;56.420;15.548;2024-02-26T11:28:37;5.80;;;4.80;;
12135;SDS011;6131;56.420;15.548;2024-02-26T11:31:04;6.53;;;4.93;;
12135;SDS011;6131;56.420;15.548;2024-02-26T11:33:30;5.60;;;4.50;;
12135;SDS011;6131;56.420;15.548;2024-02-26T11:35:56;6.33;;;5.00;;
12135;SDS011;6131;56.420;15.548;2024-02-26T11:38:23;5.37;;;4.57;;
12135;SDS011;6131;56.420;15.548;2024-02-26T11:40:51;4.77;;;3.80;;
12135;SDS011;6131;56.420;15.548;2024-02-26T11:43:18;8.17;;;4.70;;
12135;SDS011;6131;56.420;15.548;2024-02-26T11:45:47;5.17;;;4.20;;
12135;SDS011;6131;56.420;15.548;2024-02-26T11:48:15;5.70;;;3.67;;
12135;SDS011;6131;56.420;15.548;2024-02-26T11:50:43;4.53;;;3.90;;
12135;SDS011;6131;56.420;15.548;2024-02-26T11:53:27;4.27;;;3.50;;
12135;SDS011;6131;56.420;15.548;2024-02-26T11:58:41;3.53;;;2.90;;
12135;SDS011;6131;56.420;15.548;2024-02-26T12:01:52;3.93;;;3.13;;
12135;SDS011;6131;56.420;15.548;2024-02-26T12:03:54;3.60;;;3.30;;
12135;SDS011;6131;56.420;15.548;2024-02-26T12:06:20;3.90;;;3.27;;
12135;SDS011;6131;56.420;15.548;2024-02-26T12:08:46;5.23;;;3.80;;
12135;SDS011;6131;56.420;15.548;2024-02-26T12:11:15;4.60;;;3.23;;
12135;SDS011;6131;56.420;15.548;2024-02-26T12:13:41;3.40;;;2.73;;
12135;SDS011;6131;56.420;15.548;2024-02-26T12:16:08;4.50;;;3.50;;
12135;SDS011;6131;56.420;15.548;2024-02-26T12:18:34;4.07;;;3.20;;
12135;SDS011;6131;56.420;15.548;2024-02-26T12:21:00;4.03;;;2.80;;
12135;SDS011;6131;56.420;15.548;2024-02-26T12:23:27;3.20;;;2.77;;
12135;SDS011;6131;56.420;15.548;2024-02-26T12:25:53;6.80;;;3.27;;
12135;SDS011;6131;56.420;15.548;2024-02-26T12:28:20;3.43;;;3.00;;
12135;SDS011;6131;56.420;15.548;2024-02-26T12:30:46;3.97;;;3.10;;
12135;SDS011;6131;56.420;15.548;2024-02-26T12:33:12;4.27;;;3.07;;
12135;SDS011;6131;56.420;15.548;2024-02-26T12:35:38;4.30;;;3.00;;
12135;SDS011;6131;56.420;15.548;2024-02-26T12:38:04;3.63;;;2.80;;
12135;SDS011;6131;56.420;15.548;2024-02-26T12:40:30;3.87;;;2.53;;
12135;SDS011;6131;56.420;15.548;2024-02-26T12:42:56;3.20;;;2.80;;
12135;SDS011;6131;56.420;15.548;2024-02-26T12:45:23;3.17;;;2.87;;
12135;SDS011;6131;56.420;15.548;2024-02-26T12:47:51;3.40;;;2.67;;
12135;SDS011;6131;56.420;15.548;2024-02-26T12:50:17;3.77;;;2.80;;
12135;SDS011;6131;56.420;15.548;2024-02-26T12:52:44;4.83;;;3.00;;
12135;SDS011;6131;56.420;15.548;2024-02-26T12:55:17;3.47;;;2.80;;
12135;SDS011;6131;56.420;15.548;2024-02-26T12:57:44;3.97;;;2.90;;
12135;SDS011;6131;56.420;15.548;2024-02-26T13:00:14;4.43;;;3.07;;
12135;SDS011;6131;56.420;15.548;2024-02-26T13:02:41;3.23;;;2.73;;
12135;SDS011;6131;56.420;15.548;2024-02-26T13:05:09;3.60;;;2.90;;
12135;SDS011;6131;56.420;15.548;2024-02-26T13:07:40;6.23;;;3.13;;
12135;SDS011;6131;56.420;15.548;2024-02-26T13:10:06;3.53;;;2.60;;
12135;SDS011;6131;56.420;15.548;2024-02-26T13:12:33;4.67;;;3.10;;
12135;SDS011;6131;56.420;15.548;2024-02-26T13:15:02;3.67;;;3.00;;
12135;SDS011;6131;56.420;15.548;2024-02-26T13:17:32;3.10;;;2.80;;
12135;SDS011;6131;56.420;15.548;2024-02-26T13:19:59;3.90;;;3.03;;
12135;SDS011;6131;56.420;15.548;2024-02-26T13:22:24;3.47;;;3.10;;
12135;SDS011;6131;56.420;15.548;2024-02-26T13:24:54;3.20;;;2.87;;
12135;SDS011;6131;56.420;15.548;2024-02-26T13:27:21;3.43;;;3.00;;
12135;SDS011;6131;56.420;15.548;2024-02-26T13:29:47;4.47;;;2.97;;
12135;SDS011;6131;56.420;15.548;2024-02-26T13:32:13;4.17;;;2.87;;
12135;SDS011;6131;56.420;15.548;2024-02-26T13:34:39;3.10;;;2.73;;
12135;SDS011;6131;56.420;15.548;2024-02-26T13:37:05;3.57;;;2.67;;
12135;SDS011;6131;56.420;15.548;2024-02-26T13:39:31;3.83;;;2.47;;
12135;SDS011;6131;56.420;15.548;2024-02-26T13:41:57;2.73;;;2.40;;
12135;SDS011;6131;56.420;15.548;2024-02-26T13:44:23;3.40;;;2.17;;
12135;SDS011;6131;56.420;15.548;2024-02-26T13:46:49;3.60;;;2.40;;
12135;SDS011;6131;56.420;15.548;2024-02-26T13:49:15;2.60;;;2.10;;
12135;SDS011;6131;56.420;15.548;2024-02-26T13:51:44;3.23;;;2.53;;
12135;SDS011;6131;56.420;15.548;2024-02-26T13:54:10;2.77;;;2.30;;
12135;SDS011;6131;56.420;15.548;2024-02-26T13:56:38;2.80;;;2.13;;
12135;SDS011;6131;56.420;15.548;2024-02-26T13:59:04;3.73;;;2.20;;
12135;SDS011;6131;56.420;15.548;2024-02-26T14:01:30;3.63;;;2.50;;
12135;SDS011;6131;56.420;15.548;2024-02-26T14:03:58;3.03;;;2.10;;
12135;SDS011;6131;56.420;15.548;2024-02-26T14:06:24;3.57;;;2.53;;
12135;SDS011;6131;56.420;15.548;2024-02-26T14:08:50;3.27;;;2.30;;
12135;SDS011;6131;56.420;15.548;2024-02-26T14:11:16;3.23;;;2.10;;
12135;SDS011;6131;56.420;15.548;2024-02-26T14:13:42;2.60;;;2.03;;
12135;SDS011;6131;56.420;15.548;2024-02-26T14:16:08;2.90;;;2.20;;
12135;SDS011;6131;56.420;15.548;2024-02-26T14:18:35;3.53;;;2.37;;
12135;SDS011;6131;56.420;15.548;2024-02-26T14:21:01;2.20;;;2.00;;
12135;SDS011;6131;56.420;15.548;2024-02-26T14:23:27;3.33;;;2.20;;
12135;SDS011;6131;56.420;15.548;2024-02-26T14:25:53;2.63;;;2.43;;
12135;SDS011;6131;56.420;15.548;2024-02-26T14:28:19;2.90;;;2.50;;
12135;SDS011;6131;56.420;15.548;2024-02-26T14:30:45;2.57;;;2.30;;
12135;SDS011;6131;56.420;15.548;2024-02-26T14:33:11;3.40;;;2.43;;